Time;durP1;ratioP1;P1;durP2;ratioP2;P2;SDS_P1;SDS_P2;PMS_P1;PMS_P2;Temp;Humidity;BMP_temperature;BMP_pressure;BME280_temperature;BME280_humidity;BME280_pressure;Samples;Min_cycle;Max_cycle;Signal;HPM_P1;HPM_P2
2024/02/11 00:01:54;;;;;;;;;;;;;;;;;;4995506;28;89040;-65
2024/02/11 00:04:19;;;;;;;;;;;;;;;;;;5006465;28;90261;-69
2024/02/11 00:06:46;;;;;;;;;;;;;;;;;;5008392;28;89598;-66
2024/02/11 00:09:12;;;;;;;;;;;;;;;;;;5008300;28;89504;-67
2024/02/11 00:11:37;;;;;;;;;;;;;;;;;;5012502;28;89989;-72
2024/02/11 00:14:02;;;;;;;;;;;;;;;;;;5010523;28;89028;-74
2024/02/11 00:16:28;;;;;;;;;;;;;;;;;;5009944;28;89202;-64
2024/02/11 00:18:53;;;;;;;;;;;;;;;;;;5008593;28;89461;-64
2024/02/11 00:21:18;;;;;;;;;;;;;;;;;;5008689;28;89134;-65
2024/02/11 00:23:44;;;;;;;;;;;;;;;;;;5009002;28;90993;-63
2024/02/11 00:26:10;;;;;;;;;;;;;;;;;;5009244;28;89201;-64
2024/02/11 00:28:35;;;;;;;;;;;;;;;;;;4972170;28;89768;-64
2024/02/11 00:31:03;;;;;;;;;;;;;;;;;;4969042;28;90384;-69
2024/02/11 00:33:28;;;;;;;;;;;;;;;;;;4970495;28;91794;-71
2024/02/11 00:35:53;;;;;;;;;;;;;;;;;;4969248;28;89607;-64
2024/02/11 00:38:19;;;;;;;;;;;;;;;;;;4968833;28;90132;-64
2024/02/11 00:40:44;;;;;;;;;;;;;;;;;;4968287;28;89186;-64
2024/02/11 00:43:12;;;;;;;;;;;;;;;;;;4985188;28;89944;-64
2024/02/11 00:45:37;;;;;;;;;;;;;;;;;;4988706;28;89508;-66
2024/02/11 00:48:03;;;;;;;;;;;;;;;;;;4989020;28;89420;-66
2024/02/11 00:50:31;;;;;;;;;;;;;;;;;;4988023;28;90940;-66
2024/02/11 00:52:56;;;;;;;;;;;;;;;;;;4991469;28;89712;-65
2024/02/11 00:55:21;;;;;;;;;;;;;;;;;;4987989;28;89244;-64
2024/02/11 00:57:47;;;;;;;;;;;;;;;;;;4987820;28;89596;-64
2024/02/11 01:00:15;;;;;;;;;;;;;;;;;;4988401;28;90096;-63
2024/02/11 01:02:40;;;;;;;;;;;;;;;;;;5004149;28;89487;-64
2024/02/11 01:05:05;;;;;;;;;;;;;;;;;;5008855;28;90359;-63
2024/02/11 01:07:38;;;;;;;;;;;;;;;;;;5008007;28;90146;-67
2024/02/11 01:10:04;;;;;;;;;;;;;;;;;;5009213;28;90602;-67
2024/02/11 01:12:29;;;;;;;;;;;;;;;;;;5008774;28;89411;-67
2024/02/11 01:14:55;;;;;;;;;;;;;;;;;;5011860;28;89042;-65
2024/02/11 01:17:23;;;;;;;;;;;;;;;;;;5008765;28;89759;-67
2024/02/11 01:19:48;;;;;;;;;;;;;;;;;;5009068;28;89368;-69
2024/02/11 01:22:13;;;;;;;;;;;;;;;;;;5008198;28;89584;-65
2024/02/11 01:24:39;;;;;;;;;;;;;;;;;;5007821;28;90315;-64
2024/02/11 01:27:04;;;;;;;;;;;;;;;;;;5007925;28;89047;-63
2024/02/11 01:29:29;;;;;;;;;;;;;;;;;;5007034;28;89747;-64
2024/02/11 01:31:54;;;;;;;;;;;;;;;;;;5008062;28;89114;-63
2024/02/11 01:34:20;;;;;;;;;;;;;;;;;;5008383;28;89009;-64
2024/02/11 01:36:45;;;;;;;;;;;;;;;;;;5010913;28;89731;-64
2024/02/11 01:39:10;;;;;;;;;;;;;;;;;;5007767;28;89030;-66
2024/02/11 01:41:37;;;;;;;;;;;;;;;;;;5007626;28;89523;-63
2024/02/11 01:44:03;;;;;;;;;;;;;;;;;;5007826;28;90350;-65
2024/02/11 01:46:28;;;;;;;;;;;;;;;;;;5007553;28;89480;-63
2024/02/11 01:48:54;;;;;;;;;;;;;;;;;;5008045;28;88966;-64
2024/02/11 01:51:20;;;;;;;;;;;;;;;;;;5006683;28;91927;-66
2024/02/11 01:53:48;;;;;;;;;;;;;;;;;;5009071;28;88967;-72
2024/02/11 01:56:14;;;;;;;;;;;;;;;;;;5011269;28;89477;-75
2024/02/11 01:58:42;;;;;;;;;;;;;;;;;;5011075;28;89879;-64
2024/02/11 02:01:07;;;;;;;;;;;;;;;;;;5004525;28;90662;-64
2024/02/11 02:03:34;;;;;;;;;;;;;;;;;;4985820;28;89557;-64
2024/02/11 02:06:00;;;;;;;;;;;;;;;;;;4987382;28;88991;-64
2024/02/11 02:08:26;;;;;;;;;;;;;;;;;;4987054;28;89405;-64
2024/02/11 02:10:51;;;;;;;;;;;;;;;;;;4986937;28;90057;-66
2024/02/11 02:13:17;;;;;;;;;;;;;;;;;;4987808;28;89496;-65
2024/02/11 02:15:42;;;;;;;;;;;;;;;;;;4988232;28;90584;-67
2024/02/11 02:18:07;;;;;;;;;;;;;;;;;;4988222;28;89414;-65
2024/02/11 02:20:33;;;;;;;;;;;;;;;;;;4990795;28;88949;-70
2024/02/11 02:22:58;;;;;;;;;;;;;;;;;;4987861;28;89198;-65
2024/02/11 02:25:24;;;;;;;;;;;;;;;;;;4987960;28;88979;-67
2024/02/11 02:27:49;;;;;;;;;;;;;;;;;;4977396;28;91244;-66
2024/02/11 02:30:14;;;;;;;;;;;;;;;;;;4968007;28;89589;-65
2024/02/11 02:32:39;;;;;;;;;;;;;;;;;;4968029;28;89300;-64
2024/02/11 02:35:05;;;;;;;;;;;;;;;;;;4967697;28;89555;-66
2024/02/11 02:37:30;;;;;;;;;;;;;;;;;;4967543;28;89215;-69
2024/02/11 02:39:55;;;;;;;;;;;;;;;;;;4978284;28;90001;-71
2024/02/11 02:42:21;;;;;;;;;;;;;;;;;;4973878;28;89585;-66
2024/02/11 02:44:46;;;;;;;;;;;;;;;;;;4977443;28;89559;-65
2024/02/11 02:47:12;;;;;;;;;;;;;;;;;;4972183;28;89649;-63
2024/02/11 02:49:38;;;;;;;;;;;;;;;;;;4984259;28;89290;-66
2024/02/11 02:52:06;;;;;;;;;;;;;;;;;;4977199;28;89051;-65
2024/02/11 02:54:32;;;;;;;;;;;;;;;;;;4976918;28;90702;-65
2024/02/11 02:56:58;;;;;;;;;;;;;;;;;;4978787;28;89685;-69
2024/02/11 02:59:23;;;;;;;;;;;;;;;;;;4967648;28;90173;-65
2024/02/11 03:01:49;;;;;;;;;;;;;;;;;;4979653;28;89309;-64
2024/02/11 03:04:15;;;;;;;;;;;;;;;;;;4975798;28;90005;-65
2024/02/11 03:06:40;;;;;;;;;;;;;;;;;;4977225;28;90597;-67
2024/02/11 03:09:06;;;;;;;;;;;;;;;;;;4968148;28;89763;-64
2024/02/11 03:11:31;;;;;;;;;;;;;;;;;;4975588;28;89662;-62
2024/02/11 03:13:56;;;;;;;;;;;;;;;;;;4976901;28;90455;-63
2024/02/11 03:16:21;;;;;;;;;;;;;;;;;;4983968;28;90440;-69
2024/02/11 03:18:47;;;;;;;;;;;;;;;;;;4976528;28;89648;-68
2024/02/11 03:21:15;;;;;;;;;;;;;;;;;;4976726;28;90529;-65
2024/02/11 03:23:41;;;;;;;;;;;;;;;;;;4979802;28;89179;-65
2024/02/11 03:26:10;;;;;;;;;;;;;;;;;;4977831;28;89481;-65
2024/02/11 03:28:35;;;;;;;;;;;;;;;;;;4977350;28;90592;-66
2024/02/11 03:31:01;;;;;;;;;;;;;;;;;;4976171;28;89075;-68
2024/02/11 03:33:26;;;;;;;;;;;;;;;;;;4975675;28;89487;-66
2024/02/11 03:35:52;;;;;;;;;;;;;;;;;;4975216;28;89573;-70
2024/02/11 03:38:18;;;;;;;;;;;;;;;;;;4971795;28;89374;-69
2024/02/11 03:40:43;;;;;;;;;;;;;;;;;;4976977;28;89437;-66
2024/02/11 03:43:13;;;;;;;;;;;;;;;;;;4974776;28;90864;-67
2024/02/11 03:45:38;;;;;;;;;;;;;;;;;;4977270;28;89357;-70
2024/02/11 03:48:04;;;;;;;;;;;;;;;;;;4974461;28;91249;-72
2024/02/11 03:50:29;;;;;;;;;;;;;;;;;;4973672;28;90194;-66
2024/02/11 03:52:56;;;;;;;;;;;;;;;;;;4978021;28;89773;-65
2024/02/11 03:55:21;;;;;;;;;;;;;;;;;;4977947;28;91065;-70
2024/02/11 03:57:46;;;;;;;;;;;;;;;;;;4980193;28;89465;-66
2024/02/11 04:00:19;;;;;;;;;;;;;;;;;;4981337;28;89725;-65
2024/02/11 04:02:45;;;;;;;;;;;;;;;;;;4981441;28;89292;-64
2024/02/11 04:05:15;;;;;;;;;;;;;;;;;;4979670;28;89858;-67
2024/02/11 04:07:45;;;;;;;;;;;;;;;;;;4982132;28;89653;-65
2024/02/11 04:10:18;;;;;;;;;;;;;;;;;;4989544;28;88986;-64
2024/02/11 04:12:44;;;;;;;;;;;;;;;;;;4982001;28;90699;-68
2024/02/11 04:15:09;;;;;;;;;;;;;;;;;;4980301;28;89401;-69
2024/02/11 04:17:36;;;;;;;;;;;;;;;;;;4978530;28;89095;-73
2024/02/11 04:20:01;;;;;;;;;;;;;;;;;;4978610;28;89490;-73
2024/02/11 04:22:27;;;;;;;;;;;;;;;;;;4978954;28;89465;-73
2024/02/11 04:24:54;;;;;;;;;;;;;;;;;;4978696;28;89084;-65
2024/02/11 04:27:22;;;;;;;;;;;;;;;;;;4980054;28;90636;-65
2024/02/11 04:29:48;;;;;;;;;;;;;;;;;;4984805;28;89295;-64
2024/02/11 04:32:14;;;;;;;;;;;;;;;;;;4999662;28;90864;-64
2024/02/11 04:34:42;;;;;;;;;;;;;;;;;;4978367;28;89452;-67
2024/02/11 04:37:07;;;;;;;;;;;;;;;;;;4980354;28;89569;-67
2024/02/11 04:39:33;;;;;;;;;;;;;;;;;;4970885;28;89697;-67
2024/02/11 04:41:58;;;;;;;;;;;;;;;;;;4980123;28;89734;-63
2024/02/11 04:44:26;;;;;;;;;;;;;;;;;;4982594;28;89553;-70
2024/02/11 04:46:51;;;;;;;;;;;;;;;;;;4978068;28;89522;-68
2024/02/11 04:49:16;;;;;;;;;;;;;;;;;;4978865;28;89326;-66
2024/02/11 04:51:42;;;;;;;;;;;;;;;;;;4983342;28;89460;-71
2024/02/11 04:54:07;;;;;;;;;;;;;;;;;;4979838;28;89686;-63
2024/02/11 04:56:32;;;;;;;;;;;;;;;;;;4977989;28;89146;-67
2024/02/11 04:59:03;;;;;;;;;;;;;;;;;;4971337;28;90722;-69
2024/02/11 05:01:29;;;;;;;;;;;;;;;;;;4981951;28;90127;-64
2024/02/11 05:03:54;;;;;;;;;;;;;;;;;;4977822;28;89402;-66
2024/02/11 05:06:23;;;;;;;;;;;;;;;;;;4979071;28;89583;-65
2024/02/11 05:08:48;;;;;;;;;;;;;;;;;;4979772;28;89531;-68
2024/02/11 05:11:14;;;;;;;;;;;;;;;;;;4988578;28;90628;-66
2024/02/11 05:13:39;;;;;;;;;;;;;;;;;;4979938;28;90187;-68
2024/02/11 05:16:05;;;;;;;;;;;;;;;;;;4977668;28;89098;-64
2024/02/11 05:18:32;;;;;;;;;;;;;;;;;;4979809;28;90373;-70
2024/02/11 05:20:57;;;;;;;;;;;;;;;;;;4978211;28;90369;-71
2024/02/11 05:23:23;;;;;;;;;;;;;;;;;;4982749;28;89774;-68
2024/02/11 05:25:50;;;;;;;;;;;;;;;;;;4978485;28;89256;-72
2024/02/11 05:28:15;;;;;;;;;;;;;;;;;;4978296;28;90402;-67
2024/02/11 05:30:45;;;;;;;;;;;;;;;;;;4977585;28;89088;-63
2024/02/11 05:33:12;;;;;;;;;;;;;;;;;;4981079;28;89465;-65
2024/02/11 05:35:38;;;;;;;;;;;;;;;;;;4978226;28;89252;-64
2024/02/11 05:38:06;;;;;;;;;;;;;;;;;;4976671;28;89497;-67
2024/02/11 05:40:32;;;;;;;;;;;;;;;;;;4977243;28;90223;-68
2024/02/11 05:42:59;;;;;;;;;;;;;;;;;;4978283;28;89595;-66
2024/02/11 05:45:24;;;;;;;;;;;;;;;;;;4977808;28;91951;-67
2024/02/11 05:47:50;;;;;;;;;;;;;;;;;;4977207;28;90074;-65
2024/02/11 05:50:16;;;;;;;;;;;;;;;;;;4978191;28;89766;-73
2024/02/11 05:52:41;;;;;;;;;;;;;;;;;;4979393;28;91066;-72
2024/02/11 05:55:09;;;;;;;;;;;;;;;;;;4981530;28;89987;-73
2024/02/11 05:57:39;;;;;;;;;;;;;;;;;;4977005;28;91014;-64
2024/02/11 06:00:11;;;;;;;;;;;;;;;;;;4984603;28;90327;-70
2024/02/11 06:02:36;;;;;;;;;;;;;;;;;;4987383;28;89761;-63
2024/02/11 06:05:02;;;;;;;;;;;;;;;;;;4979961;28;89573;-67
2024/02/11 06:07:27;;;;;;;;;;;;;;;;;;4978994;28;90287;-66
2024/02/11 06:09:53;;;;;;;;;;;;;;;;;;4972000;28;89028;-66
2024/02/11 06:12:18;;;;;;;;;;;;;;;;;;4978435;28;89482;-68
2024/02/11 06:14:44;;;;;;;;;;;;;;;;;;4978084;28;89606;-68
2024/02/11 06:17:10;;;;;;;;;;;;;;;;;;4979120;28;90222;-66
2024/02/11 06:19:37;;;;;;;;;;;;;;;;;;4977082;28;89254;-66
2024/02/11 06:22:02;;;;;;;;;;;;;;;;;;4977970;28;89104;-65
2024/02/11 06:24:29;;;;;;;;;;;;;;;;;;4981701;28;89409;-69
2024/02/11 06:26:56;;;;;;;;;;;;;;;;;;4979567;28;90081;-69
2024/02/11 06:29:21;;;;;;;;;;;;;;;;;;4977922;28;89514;-71
2024/02/11 06:31:50;;;;;;;;;;;;;;;;;;4981287;28;89636;-65
2024/02/11 06:34:16;;;;;;;;;;;;;;;;;;4969390;28;89184;-66
2024/02/11 06:36:41;;;;;;;;;;;;;;;;;;4977718;28;89017;-64
2024/02/11 06:39:10;;;;;;;;;;;;;;;;;;4975339;28;89491;-67
2024/02/11 06:41:36;;;;;;;;;;;;;;;;;;4977770;28;90195;-69
2024/02/11 06:44:03;;;;;;;;;;;;;;;;;;4983985;28;89565;-69
2024/02/11 06:46:29;;;;;;;;;;;;;;;;;;4979864;28;90083;-67
2024/02/11 06:48:54;;;;;;;;;;;;;;;;;;4980480;28;89285;-64
2024/02/11 06:51:19;;;;;;;;;;;;;;;;;;4981752;28;89415;-66
2024/02/11 06:53:44;;;;;;;;;;;;;;;;;;4977072;28;89811;-65
2024/02/11 06:56:11;;;;;;;;;;;;;;;;;;4976925;28;89512;-65
2024/02/11 06:58:37;;;;;;;;;;;;;;;;;;4976280;28;89999;-72
2024/02/11 07:01:04;;;;;;;;;;;;;;;;;;4983094;28;92438;-73
2024/02/11 07:03:29;;;;;;;;;;;;;;;;;;4980353;28;90765;-65
2024/02/11 07:05:55;;;;;;;;;;;;;;;;;;4972677;28;90330;-65
2024/02/11 07:08:21;;;;;;;;;;;;;;;;;;4975131;28;89683;-63
2024/02/11 07:10:48;;;;;;;;;;;;;;;;;;4976775;28;89010;-66
2024/02/11 07:13:14;;;;;;;;;;;;;;;;;;4974613;28;89082;-63
2024/02/11 07:15:39;;;;;;;;;;;;;;;;;;4970237;28;89045;-65
2024/02/11 07:18:06;;;;;;;;;;;;;;;;;;4976874;28;89405;-64
2024/02/11 07:20:31;;;;;;;;;;;;;;;;;;4979504;28;89773;-70
2024/02/11 07:22:56;;;;;;;;;;;;;;;;;;4975995;28;90553;-67
2024/02/11 07:25:22;;;;;;;;;;;;;;;;;;4977218;28;90057;-67
2024/02/11 07:27:48;;;;;;;;;;;;;;;;;;4995669;28;90478;-73
2024/02/11 07:30:13;;;;;;;;;;;;;;;;;;4976736;28;89316;-69
2024/02/11 07:32:38;;;;;;;;;;;;;;;;;;4982976;28;90063;-72
2024/02/11 07:35:07;;;;;;;;;;;;;;;;;;4974300;28;89393;-65
2024/02/11 07:37:32;;;;;;;;;;;;;;;;;;4979125;28;90686;-65
2024/02/11 07:39:57;;;;;;;;;;;;;;;;;;4975171;28;89101;-65
2024/02/11 07:42:22;;;;;;;;;;;;;;;;;;4981249;28;89114;-73
2024/02/11 07:44:48;;;;;;;;;;;;;;;;;;4978926;28;89896;-72
2024/02/11 07:47:14;;;;;;;;;;;;;;;;;;4982387;28;89570;-66
2024/02/11 07:49:39;;;;;;;;;;;;;;;;;;4980893;28;90620;-68
2024/02/11 07:52:06;;;;;;;;;;;;;;;;;;4978934;28;89247;-69
2024/02/11 07:54:33;;;;;;;;;;;;;;;;;;4984367;28;89899;-68
2024/02/11 07:56:59;;;;;;;;;;;;;;;;;;4985549;28;90937;-68
2024/02/11 07:59:24;;;;;;;;;;;;;;;;;;4984475;28;90349;-73
2024/02/11 08:01:49;;;;;;;;;;;;;;;;;;4982202;28;89560;-73
2024/02/11 08:04:16;;;;;;;;;;;;;;;;;;4982768;28;90270;-72
2024/02/11 08:06:42;;;;;;;;;;;;;;;;;;4986965;28;89954;-69
2024/02/11 08:09:09;;;;;;;;;;;;;;;;;;4987497;28;89918;-66
2024/02/11 08:11:35;;;;;;;;;;;;;;;;;;4978206;28;89929;-68
2024/02/11 08:14:00;;;;;;;;;;;;;;;;;;4981043;28;89098;-65
2024/02/11 08:16:26;;;;;;;;;;;;;;;;;;4978650;28;89669;-66
2024/02/11 08:18:52;;;;;;;;;;;;;;;;;;4982721;28;89892;-65
2024/02/11 08:21:17;;;;;;;;;;;;;;;;;;4982861;28;89035;-66
2024/02/11 08:23:42;;;;;;;;;;;;;;;;;;4978101;28;90594;-66
2024/02/11 08:26:08;;;;;;;;;;;;;;;;;;4981431;28;90301;-72
2024/02/11 08:28:33;;;;;;;;;;;;;;;;;;4981836;28;89477;-71
2024/02/11 08:30:58;;;;;;;;;;;;;;;;;;4982366;28;90501;-65
2024/02/11 08:33:24;;;;;;;;;;;;;;;;;;4980174;28;90774;-67
2024/02/11 08:35:50;;;;;;;;;;;;;;;;;;4984364;28;89022;-67
2024/02/11 08:38:15;;;;;;;;;;;;;;;;;;4980424;28;89136;-70
2024/02/11 08:40:41;;;;;;;;;;;;;;;;;;4981214;28;89128;-81
2024/02/11 08:43:06;;;;;;;;;;;;;;;;;;4981850;28;91765;-75
2024/02/11 08:45:32;;;;;;;;;;;;;;;;;;4980601;28;89830;-69
2024/02/11 08:47:57;;;;;;;;;;;;;;;;;;4980912;28;89398;-65
2024/02/11 08:50:23;;;;;;;;;;;;;;;;;;4978378;28;89523;-71
2024/02/11 08:52:49;;;;;;;;;;;;;;;;;;4979484;28;89147;-74
2024/02/11 08:55:17;;;;;;;;;;;;;;;;;;4979520;28;89402;-65
2024/02/11 08:57:43;;;;;;;;;;;;;;;;;;4978581;28;89294;-69
2024/02/11 09:00:16;;;;;;;;;;;;;;;;;;4977834;28;89707;-69
2024/02/11 09:02:42;;;;;;;;;;;;;;;;;;4985433;28;90336;-70
2024/02/11 09:05:08;;;;;;;;;;;;;;;;;;4976280;28;90264;-73
2024/02/11 09:07:34;;;;;;;;;;;;;;;;;;4981774;28;88979;-73
2024/02/11 09:09:59;;;;;;;;;;;;;;;;;;4972449;28;89380;-64
2024/02/11 09:12:25;;;;;;;;;;;;;;;;;;4978941;28;89774;-65
2024/02/11 09:14:50;;;;;;;;;;;;;;;;;;4978035;28;89464;-64
2024/02/11 09:17:15;;;;;;;;;;;;;;;;;;4978264;28;89205;-64
2024/02/11 09:19:41;;;;;;;;;;;;;;;;;;4979364;28;89055;-63
2024/02/11 09:22:07;;;;;;;;;;;;;;;;;;4974104;28;89736;-70
2024/02/11 09:24:38;;;;;;;;;;;;;;;;;;4981731;28;89340;-65
2024/02/11 09:27:04;;;;;;;;;;;;;;;;;;4977279;28;89083;-63
2024/02/11 09:29:30;;;;;;;;;;;;;;;;;;4979526;28;89648;-64
2024/02/11 09:31:55;;;;;;;;;;;;;;;;;;4977369;28;89036;-65
2024/02/11 09:34:22;;;;;;;;;;;;;;;;;;4979797;28;89415;-65
2024/02/11 09:36:47;;;;;;;;;;;;;;;;;;4973685;28;90397;-66
2024/02/11 09:39:13;;;;;;;;;;;;;;;;;;4979999;28;89446;-76
2024/02/11 09:41:38;;;;;;;;;;;;;;;;;;4980994;28;89310;-69
2024/02/11 09:44:04;;;;;;;;;;;;;;;;;;4976814;28;89215;-73
2024/02/11 09:46:36;;;;;;;;;;;;;;;;;;4982085;28;89089;-71
2024/02/11 09:49:09;;;;;;;;;;;;;;;;;;4976105;28;90336;-70
2024/02/11 09:51:34;;;;;;;;;;;;;;;;;;4987240;28;90380;-64
2024/02/11 09:54:00;;;;;;;;;;;;;;;;;;4983472;28;90577;-64
2024/02/11 09:56:26;;;;;;;;;;;;;;;;;;4978111;28;90468;-64
2024/02/11 09:58:52;;;;;;;;;;;;;;;;;;4974689;28;89207;-66
2024/02/11 10:01:18;;;;;;;;;;;;;;;;;;4982781;28;90676;-66
2024/02/11 10:03:45;;;;;;;;;;;;;;;;;;4981804;28;90350;-65
2024/02/11 10:06:11;;;;;;;;;;;;;;;;;;4977904;28;89285;-67
2024/02/11 10:08:36;;;;;;;;;;;;;;;;;;4972350;28;89546;-68
2024/02/11 10:11:02;;;;;;;;;;;;;;;;;;4995341;28;90040;-66
2024/02/11 10:13:28;;;;;;;;;;;;;;;;;;4982139;28;89557;-69
2024/02/11 10:15:55;;;;;;;;;;;;;;;;;;4968054;28;90340;-75
2024/02/11 10:18:20;;;;;;;;;;;;;;;;;;4980124;28;89033;-64
2024/02/11 10:20:46;;;;;;;;;;;;;;;;;;4980438;28;89504;-68
2024/02/11 10:23:12;;;;;;;;;;;;;;;;;;4975837;28;91032;-74
2024/02/11 10:25:37;;;;;;;;;;;;;;;;;;4979251;28;89383;-75
2024/02/11 10:28:04;;;;;;;;;;;;;;;;;;4978550;28;89375;-64
2024/02/11 10:30:30;;;;;;;;;;;;;;;;;;4976774;28;89197;-74
2024/02/11 10:32:58;;;;;;;;;;;;;;;;;;4976657;28;89198;-68
2024/02/11 10:35:33;;;;;;;;;;;;;;;;;;4977903;28;90574;-73
2024/02/11 10:37:59;;;;;;;;;;;;;;;;;;4986239;28;89404;-64
2024/02/11 10:40:25;;;;;;;;;;;;;;;;;;4981847;28;89538;-70
2024/02/11 10:42:51;;;;;;;;;;;;;;;;;;4977210;28;89207;-65
2024/02/11 10:45:16;;;;;;;;;;;;;;;;;;4983787;28;90382;-64
2024/02/11 10:47:42;;;;;;;;;;;;;;;;;;4984245;28;89779;-66
2024/02/11 10:50:07;;;;;;;;;;;;;;;;;;4982160;28;89189;-73
2024/02/11 10:52:43;;;;;;;;;;;;;;;;;;4986396;28;89697;-64
2024/02/11 10:55:13;;;;;;;;;;;;;;;;;;4984202;28;89554;-65
2024/02/11 10:58:00;;;;;;;;;;;;;;;;;;4989077;28;90086;-64
2024/02/11 11:00:26;;;;;;;;;;;;;;;;;;4982576;28;90429;-66
2024/02/11 11:02:53;;;;;;;;;;;;;;;;;;4986093;28;89723;-63
2024/02/11 11:05:20;;;;;;;;;;;;;;;;;;4979924;28;89815;-62
2024/02/11 11:07:48;;;;;;;;;;;;;;;;;;4985301;28;89649;-63
2024/02/11 11:10:14;;;;;;;;;;;;;;;;;;4979117;28;90242;-64
2024/02/11 11:12:46;;;;;;;;;;;;;;;;;;4975471;28;90871;-65
2024/02/11 11:15:11;;;;;;;;;;;;;;;;;;4974205;28;90915;-65
2024/02/11 11:17:37;;;;;;;;;;;;;;;;;;4983669;28;89646;-63
2024/02/11 11:20:12;;;;;;;;;;;;;;;;;;4976204;28;89600;-64
2024/02/11 11:22:38;;;;;;;;;;;;;;;;;;4977380;28;89549;-65
2024/02/11 11:25:05;;;;;;;;;;;;;;;;;;4976543;28;89394;-62
2024/02/11 11:27:30;;;;;;;;;;;;;;;;;;4974520;28;89085;-63
2024/02/11 11:29:55;;;;;;;;;;;;;;;;;;4976440;28;89536;-65
2024/02/11 11:32:24;;;;;;;;;;;;;;;;;;4977619;28;89971;-62
2024/02/11 11:34:50;;;;;;;;;;;;;;;;;;4977524;28;90241;-65
2024/02/11 11:37:16;;;;;;;;;;;;;;;;;;4972052;28;89433;-64
2024/02/11 11:39:45;;;;;;;;;;;;;;;;;;4981693;28;90128;-70
2024/02/11 11:42:10;;;;;;;;;;;;;;;;;;4977505;28;89173;-67
2024/02/11 11:44:36;;;;;;;;;;;;;;;;;;4979654;28;89647;-63
2024/02/11 11:47:01;;;;;;;;;;;;;;;;;;4976995;28;90645;-67
2024/02/11 11:49:28;;;;;;;;;;;;;;;;;;4980240;28;89549;-69
2024/02/11 11:52:00;;;;;;;;;;;;;;;;;;4976558;28;89924;-71
2024/02/11 11:54:29;;;;;;;;;;;;;;;;;;4977908;28;89499;-64
2024/02/11 11:56:58;;;;;;;;;;;;;;;;;;4979249;28;89244;-72
2024/02/11 11:59:24;;;;;;;;;;;;;;;;;;4969014;28;89596;-63
2024/02/11 12:01:49;;;;;;;;;;;;;;;;;;4985797;28;90875;-70
2024/02/11 12:04:16;;;;;;;;;;;;;;;;;;4978803;28;89710;-62
2024/02/11 12:06:42;;;;;;;;;;;;;;;;;;4979482;28;89018;-62
2024/02/11 12:09:09;;;;;;;;;;;;;;;;;;4978688;28;90314;-69
2024/02/11 12:11:34;;;;;;;;;;;;;;;;;;4982563;28;89113;-63
2024/02/11 12:14:00;;;;;;;;;;;;;;;;;;4979678;28;89512;-62
2024/02/11 12:16:26;;;;;;;;;;;;;;;;;;4979623;28;89097;-70
2024/02/11 12:18:52;;;;;;;;;;;;;;;;;;4981891;28;89954;-66
2024/02/11 12:21:19;;;;;;;;;;;;;;;;;;4976949;28;90762;-62
2024/02/11 12:23:45;;;;;;;;;;;;;;;;;;4986540;28;89598;-71
2024/02/11 12:26:10;;;;;;;;;;;;;;;;;;4989259;28;89658;-70
2024/02/11 12:28:37;;;;;;;;;;;;;;;;;;4993204;28;90208;-62
2024/02/11 12:31:06;;;;;;;;;;;;;;;;;;4993080;28;90029;-74
2024/02/11 12:33:34;;;;;;;;;;;;;;;;;;4988408;28;89584;-79
2024/02/11 12:36:04;;;;;;;;;;;;;;;;;;4984316;28;90367;-76
2024/02/11 12:38:30;;;;;;;;;;;;;;;;;;4972107;28;90268;-80
2024/02/11 12:40:56;;;;;;;;;;;;;;;;;;4980926;28;89481;-66
2024/02/11 12:43:22;;;;;;;;;;;;;;;;;;4978268;28;89860;-74
2024/02/11 12:45:47;;;;;;;;;;;;;;;;;;4979279;28;89674;-65
2024/02/11 12:48:12;;;;;;;;;;;;;;;;;;4980053;28;90092;-76
2024/02/11 12:50:38;;;;;;;;;;;;;;;;;;4979207;28;89478;-67
2024/02/11 12:53:04;;;;;;;;;;;;;;;;;;4982889;28;89509;-67
2024/02/11 12:55:29;;;;;;;;;;;;;;;;;;4980537;28;90594;-66
2024/02/11 12:57:55;;;;;;;;;;;;;;;;;;4981149;28;89543;-65
2024/02/11 13:00:21;;;;;;;;;;;;;;;;;;4981515;28;89421;-66
2024/02/11 13:02:46;;;;;;;;;;;;;;;;;;4979263;28;89152;-64
2024/02/11 13:05:12;;;;;;;;;;;;;;;;;;4978862;28;89469;-74
2024/02/11 13:07:37;;;;;;;;;;;;;;;;;;4982901;28;92284;-74
2024/02/11 13:10:04;;;;;;;;;;;;;;;;;;4973064;28;89581;-66
2024/02/11 13:12:36;;;;;;;;;;;;;;;;;;4979250;28;91385;-67
2024/02/11 13:15:01;;;;;;;;;;;;;;;;;;4974290;28;90271;-67
2024/02/11 13:17:26;;;;;;;;;;;;;;;;;;4979142;28;89212;-68
2024/02/11 13:19:52;;;;;;;;;;;;;;;;;;4982010;28;90135;-66
2024/02/11 13:22:17;;;;;;;;;;;;;;;;;;4977622;28;89700;-66
2024/02/11 13:24:44;;;;;;;;;;;;;;;;;;4980148;28;89059;-64
2024/02/11 13:27:09;;;;;;;;;;;;;;;;;;4988612;28;90740;-68
2024/02/11 13:29:35;;;;;;;;;;;;;;;;;;4981392;28;89600;-62
2024/02/11 13:32:00;;;;;;;;;;;;;;;;;;4980964;28;90865;-66
2024/02/11 13:34:25;;;;;;;;;;;;;;;;;;4978465;28;91485;-68
2024/02/11 13:36:51;;;;;;;;;;;;;;;;;;4976263;28;89354;-69
2024/02/11 13:39:18;;;;;;;;;;;;;;;;;;4981557;28;89055;-65
2024/02/11 13:41:43;;;;;;;;;;;;;;;;;;4991651;28;90399;-63
2024/02/11 13:44:08;;;;;;;;;;;;;;;;;;4969588;28;89364;-63
2024/02/11 13:46:34;;;;;;;;;;;;;;;;;;4978212;28;89925;-63
2024/02/11 13:48:59;;;;;;;;;;;;;;;;;;4980816;28;90651;-64
2024/02/11 13:51:24;;;;;;;;;;;;;;;;;;4981080;28;89478;-64
2024/02/11 13:53:49;;;;;;;;;;;;;;;;;;4981094;28;90332;-63
2024/02/11 13:56:15;;;;;;;;;;;;;;;;;;4977245;28;89118;-65
2024/02/11 13:58:41;;;;;;;;;;;;;;;;;;4980352;28;91069;-64
2024/02/11 14:01:09;;;;;;;;;;;;;;;;;;4978739;28;89713;-63
2024/02/11 14:03:39;;;;;;;;;;;;;;;;;;4980961;28;89081;-68
2024/02/11 14:06:04;;;;;;;;;;;;;;;;;;4975729;28;90820;-62
2024/02/11 14:08:29;;;;;;;;;;;;;;;;;;4970959;28;90828;-64
2024/02/11 14:10:55;;;;;;;;;;;;;;;;;;4984603;28;89369;-66
2024/02/11 14:13:20;;;;;;;;;;;;;;;;;;4985045;28;89949;-67
2024/02/11 14:15:45;;;;;;;;;;;;;;;;;;4980177;28;89424;-69
2024/02/11 14:18:11;;;;;;;;;;;;;;;;;;4979396;28;89405;-64
2024/02/11 14:20:37;;;;;;;;;;;;;;;;;;4976396;28;89639;-64
2024/02/11 14:23:02;;;;;;;;;;;;;;;;;;4975962;28;90672;-63
2024/02/11 14:25:28;;;;;;;;;;;;;;;;;;4978035;28;90142;-64
2024/02/11 14:27:54;;;;;;;;;;;;;;;;;;4977302;28;89519;-63
2024/02/11 14:30:19;;;;;;;;;;;;;;;;;;4976095;28;91496;-63
2024/02/11 14:32:44;;;;;;;;;;;;;;;;;;4979223;28;89523;-66
2024/02/11 14:35:10;;;;;;;;;;;;;;;;;;4979709;28;90285;-66
2024/02/11 14:37:37;;;;;;;;;;;;;;;;;;4973914;28;89831;-62
2024/02/11 14:40:02;;;;;;;;;;;;;;;;;;4982832;28;90019;-62
2024/02/11 14:42:28;;;;;;;;;;;;;;;;;;4974902;28;89080;-66
2024/02/11 14:44:53;;;;;;;;;;;;;;;;;;4973554;28;89580;-64
2024/02/11 14:47:18;;;;;;;;;;;;;;;;;;4975114;28;89332;-68
2024/02/11 14:49:45;;;;;;;;;;;;;;;;;;4973340;28;89468;-67
2024/02/11 14:52:10;;;;;;;;;;;;;;;;;;4976064;28;90851;-65
2024/02/11 14:54:37;;;;;;;;;;;;;;;;;;4979721;28;89250;-66
2024/02/11 14:57:05;;;;;;;;;;;;;;;;;;4981212;28;91756;-64
2024/02/11 14:59:32;;;;;;;;;;;;;;;;;;4983938;28;90800;-67
2024/02/11 15:01:58;;;;;;;;;;;;;;;;;;4976921;28;89268;-67
2024/02/11 15:04:25;;;;;;;;;;;;;;;;;;4979952;28;89742;-70
2024/02/11 15:06:51;;;;;;;;;;;;;;;;;;4982918;28;91456;-69
2024/02/11 15:09:18;;;;;;;;;;;;;;;;;;4980816;28;90337;-64
2024/02/11 15:11:46;;;;;;;;;;;;;;;;;;4981309;28;90087;-63
2024/02/11 15:14:11;;;;;;;;;;;;;;;;;;4975964;28;90238;-63
2024/02/11 15:16:37;;;;;;;;;;;;;;;;;;4984600;28;89411;-63
2024/02/11 15:19:02;;;;;;;;;;;;;;;;;;4976330;28;90494;-64
2024/02/11 15:21:28;;;;;;;;;;;;;;;;;;4977067;28;89531;-68
2024/02/11 15:23:53;;;;;;;;;;;;;;;;;;4975974;28;89547;-65
2024/02/11 15:26:18;;;;;;;;;;;;;;;;;;4977382;28;89377;-65
2024/02/11 15:28:44;;;;;;;;;;;;;;;;;;4972811;28;89365;-62
2024/02/11 15:31:10;;;;;;;;;;;;;;;;;;4976722;28;89792;-62
2024/02/11 15:33:35;;;;;;;;;;;;;;;;;;4975330;28;89069;-64
2024/02/11 15:36:01;;;;;;;;;;;;;;;;;;4982856;28;89770;-62
2024/02/11 15:38:26;;;;;;;;;;;;;;;;;;4972422;28;90085;-66
2024/02/11 15:40:51;;;;;;;;;;;;;;;;;;4983782;28;89629;-62
2024/02/11 15:43:17;;;;;;;;;;;;;;;;;;4979872;28;89615;-64
2024/02/11 15:45:42;;;;;;;;;;;;;;;;;;4992025;28;89595;-63
2024/02/11 15:48:09;;;;;;;;;;;;;;;;;;4978388;28;89729;-63
2024/02/11 15:50:35;;;;;;;;;;;;;;;;;;4975388;28;89641;-62
2024/02/11 15:53:01;;;;;;;;;;;;;;;;;;4976298;28;90800;-65
2024/02/11 15:55:26;;;;;;;;;;;;;;;;;;4982438;28;89495;-64
2024/02/11 15:57:55;;;;;;;;;;;;;;;;;;4984935;28;90955;-66
2024/02/11 16:00:20;;;;;;;;;;;;;;;;;;4976016;28;89370;-65
2024/02/11 16:02:47;;;;;;;;;;;;;;;;;;4982152;28;90712;-64
2024/02/11 16:05:12;;;;;;;;;;;;;;;;;;4979699;28;90158;-66
2024/02/11 16:07:37;;;;;;;;;;;;;;;;;;4982760;28;89831;-64
2024/02/11 16:10:03;;;;;;;;;;;;;;;;;;4985275;28;90107;-63
2024/02/11 16:12:28;;;;;;;;;;;;;;;;;;4980173;28;90158;-62
2024/02/11 16:14:54;;;;;;;;;;;;;;;;;;4980942;28;89628;-62
2024/02/11 16:17:19;;;;;;;;;;;;;;;;;;4978792;28;89837;-62
2024/02/11 16:19:46;;;;;;;;;;;;;;;;;;4983700;28;89017;-62
2024/02/11 16:22:11;;;;;;;;;;;;;;;;;;4977805;28;90529;-70
2024/02/11 16:24:37;;;;;;;;;;;;;;;;;;4982121;28;89663;-66
2024/02/11 16:27:02;;;;;;;;;;;;;;;;;;4975181;28;89831;-67
2024/02/11 16:29:28;;;;;;;;;;;;;;;;;;4994958;28;90028;-68
2024/02/11 16:31:53;;;;;;;;;;;;;;;;;;4985689;28;89878;-69
2024/02/11 16:34:18;;;;;;;;;;;;;;;;;;4984038;28;89697;-70
2024/02/11 16:36:44;;;;;;;;;;;;;;;;;;4989607;28;90771;-69
2024/02/11 16:39:09;;;;;;;;;;;;;;;;;;4980147;28;90346;-69